Startpagina
METAR-TAF:

METAR-TAF

Vliegvelden :

Peer, België

Vliegbasis Kleine-Brogel

breedte: 51-10N, lengte: 005-28E, hoogte: 55 m

Actueel weer

Dit bericht is 30 minuten geleden gemaakt, om 01:25 UTC
Wind 1 kt uit variabele richting
Temperatuur 10°C
Vochtigheid 100%
Druk 1021 hPa
Zicht: 0650 m
mist

METAR: EBBL 260125Z AUTO VRB01KT 0650 FG NCD 10/10 Q1021 RED

Tijdstip: 03:55 (01:55 UTC)

Verwachting

Dit bericht is 10 uur en het 14 minuten geleden gemaakt, om 15:41 UTC
Verwachting geldig van 25 om 19 UTC tot 26 om 07 UTC
Wind 5 kt uit het oostnoordoosten
Zicht 10 km of meer
Weinig wolken op 2500 ft
Wijzigt naar
van 26 om 00 UTC tot 26 om 02 UTC
Zicht: 5000 m
Gebroken wolken op 2000 ft
nevel
Wijzigt naar
van 26 om 02 UTC tot 26 om 04 UTC
Zicht: 1500 m
nevel
Tijdelijke
van 26 om 04 UTC tot 26 om 07 UTC
Zicht: 0200 m
Gebroken wolken op 100 ft
mist

TAF: EBBL 251541Z 2519/2607 06005KT 9999 FEW025 BECMG 2600/2602 5000 BR BKN020 BECMG 2602/2604 1500 BR TEMPO 2604/2607 0200 FG BKN001

Waarnemingen en weersverwachtingen van meer dan 4000 vliegvelden (METAR en TAF).

De beschikbare stations zijn de gele en rode punten op de kaart.

Ga met uw muis naar het station om de naam te zien.

Klik dan om waarnemingen en weersverwachtingen te zien.

kaart wijzigen: klik op de groene knoppen met een zwart kruis om in te zoomen, op de groene knop met een streepje om uit te zoomen of op de groene pijlen voor aangrenzende kaarten.


METAR-TAF: